YLVB weather

Lovely Banks Airport
Victoria, Australia

Public forecast

Using degrees Celsius for public forecast. Weather courtesy of forecast.io.

METAR (pilot weather report)

Closest report is Avalon Airport, 6.4 nm (11.9 km) E. Retrieved 2019/03/26 03:30 UTC (12 minutes ago):

YMAV 260330Z AUTO 25016KT 9999 // BKN061 20/05 Q1019 RF00.0/000.0

TAF (pilot weather forecast)

Forecast is more than 12 hours old.

Closest forecast is Avalon Airport, 6.4 nm (11.9 km) E. Retrieved 2019/03/25 06:33 UTC (21 hours ago):

TAF YMAV 250510Z 2506/2606 28026G40KT 9999 -SHRA NSC FM250800 29017G30KT CAVOK FM251600 28014KT 9999 SCT045